OOL weather

Gold Coast Airport
Gold Coast, Queensland, Australia

Public forecast

Using degrees Celsius for public forecast. Weather courtesy of forecast.io.

METAR (pilot weather report)

Retrieved 2017/12/16 02:30 UTC (0 seconds ago):

YBCG 160230Z AUTO 04013KT 9999 // NCD 28/19 Q1016 RF00.0/000.0

TAF (pilot weather forecast)

Forecast is more than 12 hours old.

Retrieved 2017/12/15 00:00 UTC (1 day ago):

TAF YBCG 152320Z 1600/1624 04010KT 9999 SCT030 FM161800 20005KT 9999 SCT025 FM162200 04010KT 9999 SCT030